sensor_id;sensor_type;location;lat;lon;timestamp;P1;durP1;ratioP1;P2;durP2;ratioP2
76477;SDS011;65309;49.790;18.972;2024-01-10T00:00:59;1.00;;;0.98;;
76477;SDS011;65309;49.790;18.972;2024-01-10T00:06:17;1.15;;;1.15;;
76477;SDS011;65309;49.790;18.972;2024-01-10T00:11:21;0.55;;;0.55;;
76477;SDS011;65309;49.790;18.972;2024-01-10T00:16:23;0.57;;;0.57;;
76477;SDS011;65309;49.790;18.972;2024-01-10T00:21:26;0.00;;;0.00;;
76477;SDS011;65309;49.790;18.972;2024-01-10T00:26:29;1.45;;;0.93;;
76477;SDS011;65309;49.790;18.972;2024-01-10T00:31:31;0.77;;;0.77;;
76477;SDS011;65309;49.790;18.972;2024-01-10T00:36:34;3.05;;;1.45;;
76477;SDS011;65309;49.790;18.972;2024-01-10T00:41:37;1.67;;;1.58;;
76477;SDS011;65309;49.790;18.972;2024-01-10T00:46:39;2.33;;;2.20;;
76477;SDS011;65309;49.790;18.972;2024-01-10T00:51:41;4.10;;;3.72;;
76477;SDS011;65309;49.790;18.972;2024-01-10T00:56:45;0.82;;;0.63;;
76477;SDS011;65309;49.790;18.972;2024-01-10T01:01:47;1.50;;;1.38;;
76477;SDS011;65309;49.790;18.972;2024-01-10T01:06:49;1.30;;;1.30;;
76477;SDS011;65309;49.790;18.972;2024-01-10T01:11:52;6.70;;;4.18;;
76477;SDS011;65309;49.790;18.972;2024-01-10T01:16:54;0.70;;;0.70;;
76477;SDS011;65309;49.790;18.972;2024-01-10T01:21:56;3.03;;;2.72;;
76477;SDS011;65309;49.790;18.972;2024-01-10T01:27:00;0.75;;;0.75;;
76477;SDS011;65309;49.790;18.972;2024-01-10T01:32:02;10.93;;;7.38;;
76477;SDS011;65309;49.790;18.972;2024-01-10T01:37:05;12.20;;;5.88;;
76477;SDS011;65309;49.790;18.972;2024-01-10T01:42:08;2.40;;;2.30;;
76477;SDS011;65309;49.790;18.972;2024-01-10T01:47:10;1.20;;;1.08;;
76477;SDS011;65309;49.790;18.972;2024-01-10T01:52:13;6.80;;;4.38;;
76477;SDS011;65309;49.790;18.972;2024-01-10T01:57:16;8.48;;;2.20;;
76477;SDS011;65309;49.790;18.972;2024-01-10T02:02:18;4.32;;;3.95;;
76477;SDS011;65309;49.790;18.972;2024-01-10T02:07:23;0.50;;;0.50;;
76477;SDS011;65309;49.790;18.972;2024-01-10T02:12:27;0.73;;;0.73;;
76477;SDS011;65309;49.790;18.972;2024-01-10T02:17:29;1.27;;;1.20;;
76477;SDS011;65309;49.790;18.972;2024-01-10T02:22:31;2.95;;;2.60;;
76477;SDS011;65309;49.790;18.972;2024-01-10T02:27:34;0.80;;;0.80;;
76477;SDS011;65309;49.790;18.972;2024-01-10T02:32:37;0.20;;;0.20;;
76477;SDS011;65309;49.790;18.972;2024-01-10T02:37:40;0.63;;;0.63;;
76477;SDS011;65309;49.790;18.972;2024-01-10T02:42:43;0.68;;;0.68;;
76477;SDS011;65309;49.790;18.972;2024-01-10T02:47:45;2.28;;;1.95;;
76477;SDS011;65309;49.790;18.972;2024-01-10T02:52:48;1.30;;;1.20;;
76477;SDS011;65309;49.790;18.972;2024-01-10T02:57:51;1.15;;;0.60;;
76477;SDS011;65309;49.790;18.972;2024-01-10T03:02:53;0.25;;;0.25;;
76477;SDS011;65309;49.790;18.972;2024-01-10T03:07:55;0.60;;;0.60;;
76477;SDS011;65309;49.790;18.972;2024-01-10T03:12:59;0.43;;;0.43;;
76477;SDS011;65309;49.790;18.972;2024-01-10T03:18:01;0.15;;;0.15;;
76477;SDS011;65309;49.790;18.972;2024-01-10T03:23:03;0.30;;;0.30;;
76477;SDS011;65309;49.790;18.972;2024-01-10T03:28:07;5.57;;;5.15;;
76477;SDS011;65309;49.790;18.972;2024-01-10T03:33:09;3.20;;;2.17;;
76477;SDS011;65309;49.790;18.972;2024-01-10T03:38:11;3.20;;;2.88;;
76477;SDS011;65309;49.790;18.972;2024-01-10T03:43:15;0.20;;;0.20;;
76477;SDS011;65309;49.790;18.972;2024-01-10T03:48:18;0.35;;;0.35;;
76477;SDS011;65309;49.790;18.972;2024-01-10T03:53:20;1.55;;;0.90;;
76477;SDS011;65309;49.790;18.972;2024-01-10T03:58:24;0.98;;;0.98;;
76477;SDS011;65309;49.790;18.972;2024-01-10T04:03:26;0.57;;;0.57;;
76477;SDS011;65309;49.790;18.972;2024-01-10T04:08:28;0.75;;;0.75;;
76477;SDS011;65309;49.790;18.972;2024-01-10T04:13:31;0.30;;;0.30;;
76477;SDS011;65309;49.790;18.972;2024-01-10T04:18:33;0.38;;;0.38;;
76477;SDS011;65309;49.790;18.972;2024-01-10T04:23:36;4.90;;;2.35;;
76477;SDS011;65309;49.790;18.972;2024-01-10T04:28:39;15.88;;;3.13;;
76477;SDS011;65309;49.790;18.972;2024-01-10T04:33:43;0.85;;;0.85;;
76477;SDS011;65309;49.790;18.972;2024-01-10T04:38:45;0.98;;;0.98;;
76477;SDS011;65309;49.790;18.972;2024-01-10T04:43:48;0.32;;;0.32;;
76477;SDS011;65309;49.790;18.972;2024-01-10T04:48:50;0.47;;;0.47;;
76477;SDS011;65309;49.790;18.972;2024-01-10T04:53:53;0.43;;;0.43;;
76477;SDS011;65309;49.790;18.972;2024-01-10T04:58:56;0.20;;;0.20;;
76477;SDS011;65309;49.790;18.972;2024-01-10T05:03:58;0.00;;;0.00;;
76477;SDS011;65309;49.790;18.972;2024-01-10T05:09:01;0.47;;;0.47;;
76477;SDS011;65309;49.790;18.972;2024-01-10T05:14:04;0.85;;;0.85;;
76477;SDS011;65309;49.790;18.972;2024-01-10T05:19:06;0.30;;;0.30;;
76477;SDS011;65309;49.790;18.972;2024-01-10T05:24:09;0.40;;;0.40;;
76477;SDS011;65309;49.790;18.972;2024-01-10T05:29:12;4.68;;;1.10;;
76477;SDS011;65309;49.790;18.972;2024-01-10T05:34:14;0.40;;;0.40;;
76477;SDS011;65309;49.790;18.972;2024-01-10T05:39:16;0.80;;;0.77;;
76477;SDS011;65309;49.790;18.972;2024-01-10T05:44:23;0.30;;;0.30;;
76477;SDS011;65309;49.790;18.972;2024-01-10T05:49:26;1.20;;;0.38;;
76477;SDS011;65309;49.790;18.972;2024-01-10T05:54:28;0.17;;;0.17;;
76477;SDS011;65309;49.790;18.972;2024-01-10T05:59:31;0.40;;;0.40;;
76477;SDS011;65309;49.790;18.972;2024-01-10T06:04:33;0.35;;;0.35;;
76477;SDS011;65309;49.790;18.972;2024-01-10T06:12:17;0.28;;;0.28;;
76477;SDS011;65309;49.790;18.972;2024-01-10T06:17:19;0.30;;;0.30;;
76477;SDS011;65309;49.790;18.972;2024-01-10T06:22:21;1.98;;;1.75;;
76477;SDS011;65309;49.790;18.972;2024-01-10T06:27:31;0.80;;;0.52;;
76477;SDS011;65309;49.790;18.972;2024-01-10T06:32:33;1.67;;;1.45;;
76477;SDS011;65309;49.790;18.972;2024-01-10T06:37:37;0.95;;;0.93;;
76477;SDS011;65309;49.790;18.972;2024-01-10T06:42:41;2.88;;;1.45;;
76477;SDS011;65309;49.790;18.972;2024-01-10T06:47:43;1.65;;;0.82;;
76477;SDS011;65309;49.790;18.972;2024-01-10T06:52:45;0.65;;;0.65;;
76477;SDS011;65309;49.790;18.972;2024-01-10T06:57:48;0.35;;;0.35;;
76477;SDS011;65309;49.790;18.972;2024-01-10T07:02:53;0.80;;;0.80;;
76477;SDS011;65309;49.790;18.972;2024-01-10T07:07:55;0.25;;;0.25;;
76477;SDS011;65309;49.790;18.972;2024-01-10T07:12:58;0.15;;;0.15;;
76477;SDS011;65309;49.790;18.972;2024-01-10T07:18:00;2.05;;;1.58;;
76477;SDS011;65309;49.790;18.972;2024-01-10T07:23:03;0.45;;;0.45;;
76477;SDS011;65309;49.790;18.972;2024-01-10T07:28:07;0.10;;;0.10;;
76477;SDS011;65309;49.790;18.972;2024-01-10T07:33:09;1.10;;;1.02;;
76477;SDS011;65309;49.790;18.972;2024-01-10T07:38:11;0.43;;;0.43;;
76477;SDS011;65309;49.790;18.972;2024-01-10T07:43:15;1.38;;;1.13;;
76477;SDS011;65309;49.790;18.972;2024-01-10T07:48:17;2.05;;;0.93;;
76477;SDS011;65309;49.790;18.972;2024-01-10T07:53:19;1.52;;;1.45;;
76477;SDS011;65309;49.790;18.972;2024-01-10T07:58:23;0.90;;;0.88;;
76477;SDS011;65309;49.790;18.972;2024-01-10T08:03:25;3.42;;;1.67;;
76477;SDS011;65309;49.790;18.972;2024-01-10T08:08:27;1.10;;;0.85;;
76477;SDS011;65309;49.790;18.972;2024-01-10T08:13:31;0.93;;;0.90;;
76477;SDS011;65309;49.790;18.972;2024-01-10T08:18:33;2.38;;;1.30;;
76477;SDS011;65309;49.790;18.972;2024-01-10T08:23:36;1.20;;;1.10;;
76477;SDS011;65309;49.790;18.972;2024-01-10T08:28:39;0.20;;;0.20;;
76477;SDS011;65309;49.790;18.972;2024-01-10T08:33:42;0.43;;;0.43;;
76477;SDS011;65309;49.790;18.972;2024-01-10T08:38:44;3.05;;;1.38;;
76477;SDS011;65309;49.790;18.972;2024-01-10T08:43:48;2.40;;;2.20;;
76477;SDS011;65309;49.790;18.972;2024-01-10T08:48:51;4.72;;;1.58;;
76477;SDS011;65309;49.790;18.972;2024-01-10T08:53:53;2.72;;;0.85;;
76477;SDS011;65309;49.790;18.972;2024-01-10T08:58:56;1.05;;;1.05;;
76477;SDS011;65309;49.790;18.972;2024-01-10T09:03:58;1.63;;;0.95;;
76477;SDS011;65309;49.790;18.972;2024-01-10T09:09:01;0.63;;;0.63;;
76477;SDS011;65309;49.790;18.972;2024-01-10T09:14:04;1.42;;;1.25;;
76477;SDS011;65309;49.790;18.972;2024-01-10T09:19:07;1.65;;;1.38;;
76477;SDS011;65309;49.790;18.972;2024-01-10T09:24:12;0.65;;;0.65;;
76477;SDS011;65309;49.790;18.972;2024-01-10T09:29:30;1.17;;;1.08;;
76477;SDS011;65309;49.790;18.972;2024-01-10T09:34:33;1.52;;;1.40;;
76477;SDS011;65309;49.790;18.972;2024-01-10T09:39:35;1.27;;;1.15;;
76477;SDS011;65309;49.790;18.972;2024-01-10T09:44:39;26.52;;;8.48;;
76477;SDS011;65309;49.790;18.972;2024-01-10T09:49:41;21.05;;;6.70;;
76477;SDS011;65309;49.790;18.972;2024-01-10T09:54:46;50.65;;;14.02;;
76477;SDS011;65309;49.790;18.972;2024-01-10T09:59:52;28.85;;;10.70;;
76477;SDS011;65309;49.790;18.972;2024-01-10T10:04:56;86.20;;;25.10;;
76477;SDS011;65309;49.790;18.972;2024-01-10T10:10:06;27.02;;;8.35;;
76477;SDS011;65309;49.790;18.972;2024-01-10T10:15:12;25.13;;;7.55;;
76477;SDS011;65309;49.790;18.972;2024-01-10T10:20:20;17.60;;;7.22;;
76477;SDS011;65309;49.790;18.972;2024-01-10T10:25:24;7.15;;;2.97;;
76477;SDS011;65309;49.790;18.972;2024-01-10T10:35:32;7.43;;;3.95;;
76477;SDS011;65309;49.790;18.972;2024-01-10T10:45:47;12.43;;;4.20;;
76477;SDS011;65309;49.790;18.972;2024-01-10T10:50:50;9.10;;;3.83;;
76477;SDS011;65309;49.790;18.972;2024-01-10T10:55:59;10.55;;;6.45;;
76477;SDS011;65309;49.790;18.972;2024-01-10T11:01:06;4.35;;;2.78;;
76477;SDS011;65309;49.790;18.972;2024-01-10T11:06:09;6.78;;;3.97;;
76477;SDS011;65309;49.790;18.972;2024-01-10T11:11:15;11.18;;;5.28;;
76477;SDS011;65309;49.790;18.972;2024-01-10T11:22:09;5.55;;;2.50;;
76477;SDS011;65309;49.790;18.972;2024-01-10T11:27:20;6.57;;;3.50;;
76477;SDS011;65309;49.790;18.972;2024-01-10T11:32:24;2.17;;;1.63;;
76477;SDS011;65309;49.790;18.972;2024-01-10T11:37:27;2.92;;;1.85;;
76477;SDS011;65309;49.790;18.972;2024-01-10T11:42:40;4.38;;;2.88;;
76477;SDS011;65309;49.790;18.972;2024-01-10T11:47:44;3.03;;;1.60;;
76477;SDS011;65309;49.790;18.972;2024-01-10T11:52:46;5.65;;;2.08;;
76477;SDS011;65309;49.790;18.972;2024-01-10T11:57:48;8.93;;;4.40;;
76477;SDS011;65309;49.790;18.972;2024-01-10T12:03:11;5.68;;;2.50;;
76477;SDS011;65309;49.790;18.972;2024-01-10T12:08:14;3.60;;;2.03;;
76477;SDS011;65309;49.790;18.972;2024-01-10T12:13:17;2.75;;;1.58;;
76477;SDS011;65309;49.790;18.972;2024-01-10T12:18:21;2.40;;;1.10;;
76477;SDS011;65309;49.790;18.972;2024-01-10T12:23:23;2.30;;;1.75;;
76477;SDS011;65309;49.790;18.972;2024-01-10T12:28:25;2.90;;;1.75;;
76477;SDS011;65309;49.790;18.972;2024-01-10T12:33:29;0.75;;;0.75;;
76477;SDS011;65309;49.790;18.972;2024-01-10T12:38:33;1.35;;;0.82;;
76477;SDS011;65309;49.790;18.972;2024-01-10T12:43:35;1.75;;;0.90;;
76477;SDS011;65309;49.790;18.972;2024-01-10T12:48:39;1.25;;;0.85;;
76477;SDS011;65309;49.790;18.972;2024-01-10T12:53:45;1.58;;;1.20;;
76477;SDS011;65309;49.790;18.972;2024-01-10T12:58:47;0.60;;;0.60;;
76477;SDS011;65309;49.790;18.972;2024-01-10T13:03:51;2.30;;;1.42;;
76477;SDS011;65309;49.790;18.972;2024-01-10T13:08:54;1.33;;;0.65;;
76477;SDS011;65309;49.790;18.972;2024-01-10T13:13:57;1.60;;;0.93;;
76477;SDS011;65309;49.790;18.972;2024-01-10T13:19:00;0.80;;;0.63;;
76477;SDS011;65309;49.790;18.972;2024-01-10T13:24:03;0.65;;;0.50;;
76477;SDS011;65309;49.790;18.972;2024-01-10T13:29:06;1.40;;;0.63;;
76477;SDS011;65309;49.790;18.972;2024-01-10T13:34:10;1.17;;;0.47;;
76477;SDS011;65309;49.790;18.972;2024-01-10T13:39:13;1.38;;;1.27;;
76477;SDS011;65309;49.790;18.972;2024-01-10T13:45:05;1.55;;;0.98;;
76477;SDS011;65309;49.790;18.972;2024-01-10T13:50:09;1.08;;;0.98;;
76477;SDS011;65309;49.790;18.972;2024-01-10T13:55:11;5.10;;;2.50;;
76477;SDS011;65309;49.790;18.972;2024-01-10T14:00:15;2.15;;;1.98;;
76477;SDS011;65309;49.790;18.972;2024-01-10T14:05:18;2.97;;;0.85;;
76477;SDS011;65309;49.790;18.972;2024-01-10T14:10:20;2.50;;;1.60;;
76477;SDS011;65309;49.790;18.972;2024-01-10T14:15:24;2.92;;;1.20;;
76477;SDS011;65309;49.790;18.972;2024-01-10T14:20:26;9.35;;;4.80;;
76477;SDS011;65309;49.790;18.972;2024-01-10T14:25:28;7.05;;;3.95;;
76477;SDS011;65309;49.790;18.972;2024-01-10T14:30:31;6.28;;;3.85;;
76477;SDS011;65309;49.790;18.972;2024-01-10T14:35:34;6.20;;;3.58;;
76477;SDS011;65309;49.790;18.972;2024-01-10T14:40:36;5.47;;;4.97;;
76477;SDS011;65309;49.790;18.972;2024-01-10T14:45:40;4.50;;;3.75;;
76477;SDS011;65309;49.790;18.972;2024-01-10T14:50:42;3.50;;;2.47;;
76477;SDS011;65309;49.790;18.972;2024-01-10T14:55:44;2.42;;;2.22;;
76477;SDS011;65309;49.790;18.972;2024-01-10T15:00:48;2.50;;;2.30;;
76477;SDS011;65309;49.790;18.972;2024-01-10T15:05:50;1.25;;;1.15;;
76477;SDS011;65309;49.790;18.972;2024-01-10T15:10:53;1.73;;;1.63;;
76477;SDS011;65309;49.790;18.972;2024-01-10T15:15:57;1.85;;;1.52;;
76477;SDS011;65309;49.790;18.972;2024-01-10T15:20:59;4.13;;;1.90;;
76477;SDS011;65309;49.790;18.972;2024-01-10T15:26:01;1.17;;;1.02;;
76477;SDS011;65309;49.790;18.972;2024-01-10T15:31:05;1.65;;;1.27;;
76477;SDS011;65309;49.790;18.972;2024-01-10T15:36:07;3.50;;;1.20;;
76477;SDS011;65309;49.790;18.972;2024-01-10T15:41:13;1.17;;;1.05;;
76477;SDS011;65309;49.790;18.972;2024-01-10T15:46:18;2.95;;;2.58;;
76477;SDS011;65309;49.790;18.972;2024-01-10T15:51:23;2.03;;;1.85;;
76477;SDS011;65309;49.790;18.972;2024-01-10T15:56:25;1.65;;;1.55;;
76477;SDS011;65309;49.790;18.972;2024-01-10T16:01:30;12.32;;;2.53;;
76477;SDS011;65309;49.790;18.972;2024-01-10T16:06:32;1.50;;;0.85;;
76477;SDS011;65309;49.790;18.972;2024-01-10T16:11:39;0.55;;;0.55;;
76477;SDS011;65309;49.790;18.972;2024-01-10T16:16:42;1.95;;;1.85;;
76477;SDS011;65309;49.790;18.972;2024-01-10T16:21:45;0.55;;;0.55;;
76477;SDS011;65309;49.790;18.972;2024-01-10T16:30:48;2.30;;;1.45;;
76477;SDS011;65309;49.790;18.972;2024-01-10T16:35:53;6.00;;;3.40;;
76477;SDS011;65309;49.790;18.972;2024-01-10T16:40:56;3.20;;;2.50;;
76477;SDS011;65309;49.790;18.972;2024-01-10T16:46:00;9.82;;;4.47;;
76477;SDS011;65309;49.790;18.972;2024-01-10T16:51:03;5.35;;;4.07;;
76477;SDS011;65309;49.790;18.972;2024-01-10T16:56:06;3.22;;;2.97;;
76477;SDS011;65309;49.790;18.972;2024-01-10T17:01:12;2.03;;;1.35;;
76477;SDS011;65309;49.790;18.972;2024-01-10T17:06:15;6.75;;;1.90;;
76477;SDS011;65309;49.790;18.972;2024-01-10T17:11:17;3.67;;;1.30;;
76477;SDS011;65309;49.790;18.972;2024-01-10T17:16:21;2.38;;;2.17;;
76477;SDS011;65309;49.790;18.972;2024-01-10T17:21:23;4.53;;;2.75;;
76477;SDS011;65309;49.790;18.972;2024-01-10T17:26:25;6.95;;;1.77;;
76477;SDS011;65309;49.790;18.972;2024-01-10T17:31:29;1.55;;;1.40;;
76477;SDS011;65309;49.790;18.972;2024-01-10T17:36:34;2.28;;;1.95;;
76477;SDS011;65309;49.790;18.972;2024-01-10T17:41:37;1.13;;;1.13;;
76477;SDS011;65309;49.790;18.972;2024-01-10T17:46:44;7.07;;;5.18;;
76477;SDS011;65309;49.790;18.972;2024-01-10T17:51:46;0.75;;;0.75;;
76477;SDS011;65309;49.790;18.972;2024-01-10T17:56:48;8.05;;;1.38;;
76477;SDS011;65309;49.790;18.972;2024-01-10T18:01:52;3.88;;;2.30;;
76477;SDS011;65309;49.790;18.972;2024-01-10T18:06:55;2.60;;;2.10;;
76477;SDS011;65309;49.790;18.972;2024-01-10T18:11:57;1.92;;;1.83;;
76477;SDS011;65309;49.790;18.972;2024-01-10T18:17:01;0.75;;;0.75;;
76477;SDS011;65309;49.790;18.972;2024-01-10T18:22:03;0.32;;;0.32;;
76477;SDS011;65309;49.790;18.972;2024-01-10T18:27:05;1.48;;;1.38;;
76477;SDS011;65309;49.790;18.972;2024-01-10T18:32:10;0.73;;;0.60;;
76477;SDS011;65309;49.790;18.972;2024-01-10T18:37:12;0.68;;;0.63;;
76477;SDS011;65309;49.790;18.972;2024-01-10T18:42:14;0.63;;;0.63;;
76477;SDS011;65309;49.790;18.972;2024-01-10T18:47:18;1.52;;;1.42;;
76477;SDS011;65309;49.790;18.972;2024-01-10T18:52:20;1.25;;;1.15;;
76477;SDS011;65309;49.790;18.972;2024-01-10T18:57:22;1.38;;;1.05;;
76477;SDS011;65309;49.790;18.972;2024-01-10T19:02:26;1.38;;;1.27;;
76477;SDS011;65309;49.790;18.972;2024-01-10T19:07:28;3.13;;;2.47;;
76477;SDS011;65309;49.790;18.972;2024-01-10T19:12:30;1.17;;;1.13;;
76477;SDS011;65309;49.790;18.972;2024-01-10T19:17:34;1.58;;;1.48;;
76477;SDS011;65309;49.790;18.972;2024-01-10T19:22:36;0.90;;;0.73;;
76477;SDS011;65309;49.790;18.972;2024-01-10T19:27:39;0.32;;;0.32;;
76477;SDS011;65309;49.790;18.972;2024-01-10T19:32:42;3.20;;;1.55;;
76477;SDS011;65309;49.790;18.972;2024-01-10T19:37:45;0.85;;;0.85;;
76477;SDS011;65309;49.790;18.972;2024-01-10T19:42:47;7.57;;;2.08;;
76477;SDS011;65309;49.790;18.972;2024-01-10T19:47:50;1.73;;;1.63;;
76477;SDS011;65309;49.790;18.972;2024-01-10T19:52:53;0.70;;;0.70;;
76477;SDS011;65309;49.790;18.972;2024-01-10T19:57:55;0.57;;;0.55;;
76477;SDS011;65309;49.790;18.972;2024-01-10T20:02:58;3.55;;;2.35;;
76477;SDS011;65309;49.790;18.972;2024-01-10T20:08:01;0.77;;;0.77;;
76477;SDS011;65309;49.790;18.972;2024-01-10T20:13:03;1.92;;;1.77;;
76477;SDS011;65309;49.790;18.972;2024-01-10T20:18:08;3.20;;;1.33;;
76477;SDS011;65309;49.790;18.972;2024-01-10T20:23:10;4.97;;;4.40;;
76477;SDS011;65309;49.790;18.972;2024-01-10T20:28:12;8.73;;;1.38;;
76477;SDS011;65309;49.790;18.972;2024-01-10T20:33:18;2.88;;;2.33;;
76477;SDS011;65309;49.790;18.972;2024-01-10T20:38:21;1.88;;;1.77;;
76477;SDS011;65309;49.790;18.972;2024-01-10T20:43:23;1.65;;;1.00;;
76477;SDS011;65309;49.790;18.972;2024-01-10T20:48:30;0.57;;;0.52;;
76477;SDS011;65309;49.790;18.972;2024-01-10T20:53:32;4.15;;;1.35;;
76477;SDS011;65309;49.790;18.972;2024-01-10T20:58:36;3.00;;;2.80;;
76477;SDS011;65309;49.790;18.972;2024-01-10T21:03:39;6.07;;;4.72;;
76477;SDS011;65309;49.790;18.972;2024-01-10T21:08:42;0.52;;;0.52;;
76477;SDS011;65309;49.790;18.972;2024-01-10T21:13:44;0.30;;;0.30;;
76477;SDS011;65309;49.790;18.972;2024-01-10T21:18:47;0.10;;;0.10;;
76477;SDS011;65309;49.790;18.972;2024-01-10T21:23:50;1.17;;;0.65;;
76477;SDS011;65309;49.790;18.972;2024-01-10T21:28:52;1.33;;;1.23;;
76477;SDS011;65309;49.790;18.972;2024-01-10T21:33:56;1.35;;;1.08;;
76477;SDS011;65309;49.790;18.972;2024-01-10T21:38:58;0.70;;;0.70;;
76477;SDS011;65309;49.790;18.972;2024-01-10T21:44:00;0.13;;;0.13;;
76477;SDS011;65309;49.790;18.972;2024-01-10T21:49:03;1.00;;;0.93;;
76477;SDS011;65309;49.790;18.972;2024-01-10T21:54:06;1.67;;;1.58;;
76477;SDS011;65309;49.790;18.972;2024-01-10T21:59:08;0.28;;;0.28;;
76477;SDS011;65309;49.790;18.972;2024-01-10T22:04:11;0.40;;;0.40;;
76477;SDS011;65309;49.790;18.972;2024-01-10T22:09:13;0.65;;;0.65;;
76477;SDS011;65309;49.790;18.972;2024-01-10T22:14:15;0.52;;;0.52;;
76477;SDS011;65309;49.790;18.972;2024-01-10T22:19:19;0.22;;;0.22;;
76477;SDS011;65309;49.790;18.972;2024-01-10T22:24:21;0.25;;;0.25;;
76477;SDS011;65309;49.790;18.972;2024-01-10T22:29:24;0.45;;;0.45;;
76477;SDS011;65309;49.790;18.972;2024-01-10T22:34:28;0.43;;;0.43;;
76477;SDS011;65309;49.790;18.972;2024-01-10T22:39:31;1.25;;;1.25;;
76477;SDS011;65309;49.790;18.972;2024-01-10T22:44:33;0.13;;;0.13;;
76477;SDS011;65309;49.790;18.972;2024-01-10T22:49:36;1.27;;;1.27;;
76477;SDS011;65309;49.790;18.972;2024-01-10T22:54:38;1.20;;;1.13;;
76477;SDS011;65309;49.790;18.972;2024-01-10T22:59:41;1.15;;;1.15;;
76477;SDS011;65309;49.790;18.972;2024-01-10T23:04:45;0.35;;;0.35;;
76477;SDS011;65309;49.790;18.972;2024-01-10T23:09:47;0.75;;;0.70;;
76477;SDS011;65309;49.790;18.972;2024-01-10T23:14:49;0.35;;;0.35;;
76477;SDS011;65309;49.790;18.972;2024-01-10T23:19:52;0.57;;;0.43;;
76477;SDS011;65309;49.790;18.972;2024-01-10T23:24:54;0.40;;;0.40;;
76477;SDS011;65309;49.790;18.972;2024-01-10T23:29:56;0.10;;;0.10;;
76477;SDS011;65309;49.790;18.972;2024-01-10T23:35:00;0.38;;;0.38;;
76477;SDS011;65309;49.790;18.972;2024-01-10T23:40:03;1.02;;;0.70;;
76477;SDS011;65309;49.790;18.972;2024-01-10T23:45:05;0.20;;;0.20;;
76477;SDS011;65309;49.790;18.972;2024-01-10T23:50:10;0.50;;;0.50;;
76477;SDS011;65309;49.790;18.972;2024-01-10T23:55:12;0.35;;;0.35;;
